Sultan Atasoy — TCYG9 — position and weather

sailwx.info

Track history (hours):
 
Tides and Currents Weather Stations Pressure Air Temp Water Temp Dewpoint Dewpoint Depression Visibility Wind Speed Wind Dir Waves Ship Positions

Sultan Atasoy

Last reported at 2016-Jul-30 06:21 UTC. Time now 2016-Jul-30 07:20 UTC.
Position N 40°50' E 029°14'.

Length 109 m; draft 4.3 m.

Type: Ship. MMSI: 271040963.

Date/timePositionNaut miles runAvg speedWind from/ knotsBaromVisibWave heightAir tempDewpointWater temp
2016-Jul-30 06:21N 40°50' E 029°14'0 0.0
2016-Jul-30 05:33N 40°50' E 029°14'0 0.0
2016-Jul-30 04:33N 40°50' E 029°14'0 0.0
2016-Jul-30 03:27N 40°50' E 029°14'0 0.0
2016-Jul-30 02:33N 40°50' E 029°14'0 0.1
2016-Jul-30 01:33N 40°50' E 029°14'0 0.0
2016-Jul-30 00:33N 40°50' E 029°14'0 0.0
2016-Jul-29 23:33N 40°50' E 029°14'0 0.0
2016-Jul-29 22:33N 40°50' E 029°14'0 0.0
2016-Jul-29 21:33N 40°50' E 029°14'0 0.1
2016-Jul-29 20:33N 40°50' E 029°14'0 0.1
2016-Jul-29 19:33N 40°50' E 029°14'0 0.0
2016-Jul-29 18:33N 40°50' E 029°14'0 0.0
2016-Jul-29 17:33N 40°50' E 029°14'0 0.0
2016-Jul-29 16:33N 40°50' E 029°14'0 0.0
2016-Jul-29 15:33N 40°50' E 029°14'0 0.0
2016-Jul-29 14:33N 40°50' E 029°14'0 0.0
2016-Jul-29 13:27N 40°50' E 029°14'0 0.0
2016-Jul-29 12:33N 40°50' E 029°14'0 0.0
2016-Jul-29 11:27N 40°50' E 029°14'1 1.6
2016-Jul-29 10:33N 40°49' E 029°13'1110.6
2016-Jul-29 09:33N 40°45' E 029°26'5 1.0
2016-Jul-29 04:30N 40°46' E 029°32'0 0.0
2016-Jul-27 18:21N 40°46' E 029°32'5 5.9
2016-Jul-27 17:32N 40°44' E 029°26'8 7.9
2016-Jul-27 16:33N 40°43' E 029°16'1010.4
2016-Jul-27 15:33N 40°43' E 029°02'  
2016-Jul-24 17:25N 36°14' E 034°22'  
Track history (hours):
 
Tides and Currents Weather Stations Pressure Air Temp Water Temp Dewpoint Dewpoint Depression Visibility Wind Speed Wind Dir Waves Ship Positions

Sultan Atasoy

Last reported at 2016-Jul-30 06:21 UTC. Time now 2016-Jul-30 07:20 UTC.
Position N 40°50' E 029°14'.

Length 109 m; draft 4.3 m.

Type: Ship. MMSI: 271040963.

Date/timePositionNaut miles runAvg speedWind from/ knotsBaromVisibWave heightAir tempDewpointWater temp
2016-Jul-30 06:21N 40°50' E 029°14'0 0.0
2016-Jul-30 05:33N 40°50' E 029°14'0 0.0
2016-Jul-30 04:33N 40°50' E 029°14'0 0.0
2016-Jul-30 03:27N 40°50' E 029°14'0 0.0
2016-Jul-30 02:33N 40°50' E 029°14'0 0.1
2016-Jul-30 01:33N 40°50' E 029°14'0 0.0
2016-Jul-30 00:33N 40°50' E 029°14'0 0.0
2016-Jul-29 23:33N 40°50' E 029°14'0 0.0
2016-Jul-29 22:33N 40°50' E 029°14'0 0.0
2016-Jul-29 21:33N 40°50' E 029°14'0 0.1
2016-Jul-29 20:33N 40°50' E 029°14'0 0.1
2016-Jul-29 19:33N 40°50' E 029°14'0 0.0
2016-Jul-29 18:33N 40°50' E 029°14'0 0.0
2016-Jul-29 17:33N 40°50' E 029°14'0 0.0
2016-Jul-29 16:33N 40°50' E 029°14'0 0.0
2016-Jul-29 15:33N 40°50' E 029°14'0 0.0
2016-Jul-29 14:33N 40°50' E 029°14'0 0.0
2016-Jul-29 13:27N 40°50' E 029°14'0 0.0
2016-Jul-29 12:33N 40°50' E 029°14'0 0.0
2016-Jul-29 11:27N 40°50' E 029°14'1 1.6
2016-Jul-29 10:33N 40°49' E 029°13'1110.6
2016-Jul-29 09:33N 40°45' E 029°26'5 1.0
2016-Jul-29 04:30N 40°46' E 029°32'0 0.0
2016-Jul-27 18:21N 40°46' E 029°32'5 5.9
2016-Jul-27 17:32N 40°44' E 029°26'8 7.9
2016-Jul-27 16:33N 40°43' E 029°16'1010.4
2016-Jul-27 15:33N 40°43' E 029°02'  
2016-Jul-24 17:25N 36°14' E 034°22'  

Dump ship's entire track history